createdAt,value
2022-10-13T00:01:18.463Z,54.65
2022-10-13T00:03:49.402Z,55.04
2022-10-13T00:06:25.389Z,54.79
2022-10-13T00:08:52.373Z,55.00
2022-10-13T00:11:25.172Z,55.07
2022-10-13T00:13:59.988Z,55.18
2022-10-13T00:16:29.793Z,55.12
2022-10-13T00:18:56.601Z,55.22
2022-10-13T00:21:26.227Z,54.76
2022-10-13T00:23:57.369Z,54.91
2022-10-13T00:26:25.939Z,54.95
2022-10-13T00:28:53.821Z,54.99
2022-10-13T00:31:29.108Z,55.07
2022-10-13T00:34:01.335Z,55.25
2022-10-13T00:36:29.396Z,54.80
2022-10-13T00:38:57.046Z,55.07
2022-10-13T00:41:23.603Z,55.21
2022-10-13T00:44:00.305Z,55.24
2022-10-13T00:46:32.286Z,55.21
2022-10-13T00:49:04.330Z,55.13
2022-10-13T00:51:34.928Z,55.43
2022-10-13T00:54:07.294Z,55.41
2022-10-13T00:56:37.738Z,55.60
2022-10-13T00:59:11.974Z,55.28
2022-10-13T01:01:40.998Z,55.60
2022-10-13T01:04:11.897Z,55.75
2022-10-13T01:06:38.451Z,55.43
2022-10-13T01:09:07.811Z,55.58
2022-10-13T01:11:52.587Z,55.49
2022-10-13T01:14:41.591Z,55.29
2022-10-13T01:17:25.980Z,55.36
2022-10-13T01:20:14.204Z,55.58
2022-10-13T01:23:00.412Z,55.39
2022-10-13T01:25:31.450Z,55.51
2022-10-13T01:28:03.795Z,55.58
2022-10-13T01:30:37.667Z,55.59
2022-10-13T01:33:19.886Z,55.97
2022-10-13T01:36:11.754Z,55.95
2022-10-13T01:39:11.642Z,55.68
2022-10-13T01:41:46.457Z,55.80
2022-10-13T01:44:45.362Z,56.12
2022-10-13T01:47:15.653Z,55.71
2022-10-13T01:49:45.136Z,55.78
2022-10-13T01:52:17.960Z,55.91
2022-10-13T01:54:53.998Z,56.06
2022-10-13T01:57:33.121Z,55.88
2022-10-13T02:00:16.603Z,56.42
2022-10-13T02:02:51.703Z,55.87
2022-10-13T02:05:27.105Z,56.36
2022-10-13T02:08:01.397Z,56.16
2022-10-13T02:10:48.118Z,56.02
2022-10-13T02:13:17.671Z,56.09
2022-10-13T02:15:53.258Z,56.46
2022-10-13T02:18:23.758Z,56.09
2022-10-13T02:20:51.049Z,56.30
2022-10-13T02:23:18.779Z,56.56
2022-10-13T02:25:50.971Z,56.33
2022-10-13T02:28:18.779Z,56.45
2022-10-13T02:30:46.698Z,56.61
2022-10-13T02:33:14.418Z,56.86
2022-10-13T02:35:41.982Z,56.42
2022-10-13T02:38:08.967Z,56.40
2022-10-13T02:40:35.483Z,56.40
2022-10-13T02:43:02.365Z,56.76
2022-10-13T02:45:28.878Z,56.56
2022-10-13T02:47:55.573Z,56.92
2022-10-13T02:50:22.082Z,56.59
2022-10-13T02:52:50.383Z,56.87
2022-10-13T02:55:17.785Z,56.55
2022-10-13T02:57:45.574Z,56.69
2022-10-13T03:00:12.704Z,56.80
2022-10-13T03:02:39.310Z,56.38
2022-10-13T03:05:10.605Z,56.43
2022-10-13T03:07:37.330Z,56.36
2022-10-13T03:10:05.157Z,56.56
2022-10-13T03:12:31.726Z,56.41
2022-10-13T03:15:22.858Z,56.68
2022-10-13T03:17:49.460Z,56.37
2022-10-13T03:20:16.227Z,56.67
2022-10-13T03:22:46.081Z,56.25
2022-10-13T03:25:16.059Z,56.34
2022-10-13T03:27:43.306Z,56.63
2022-10-13T03:30:10.576Z,56.66
2022-10-13T03:32:38.955Z,56.70
2022-10-13T03:35:09.617Z,56.43
2022-10-13T03:37:36.273Z,56.63
2022-10-13T03:40:02.999Z,56.61
2022-10-13T03:42:29.498Z,56.59
2022-10-13T03:45:00.039Z,56.51
2022-10-13T03:47:26.594Z,56.89
2022-10-13T03:49:55.131Z,56.43
2022-10-13T03:52:22.887Z,56.90
2022-10-13T03:54:51.442Z,56.63
2022-10-13T03:57:17.934Z,56.71
2022-10-13T03:59:44.410Z,56.87
2022-10-13T04:02:10.999Z,56.79
2022-10-13T04:04:40.340Z,56.55
2022-10-13T04:07:07.946Z,56.51
2022-10-13T04:09:34.714Z,56.80
2022-10-13T04:12:01.179Z,56.86
2022-10-13T04:14:28.983Z,57.00
2022-10-13T04:17:01.866Z,56.79
2022-10-13T04:19:28.426Z,57.00
2022-10-13T04:21:54.901Z,57.00
2022-10-13T04:24:22.345Z,56.92
2022-10-13T04:26:48.790Z,56.65
2022-10-13T04:29:15.311Z,57.30
2022-10-13T04:31:43.858Z,57.08
2022-10-13T04:34:12.625Z,57.31
2022-10-13T04:36:39.148Z,57.01
2022-10-13T04:39:05.645Z,57.31
2022-10-13T04:41:33.001Z,57.37
2022-10-13T04:44:03.317Z,57.06
2022-10-13T04:46:29.875Z,57.51
2022-10-13T04:48:57.070Z,57.11
2022-10-13T04:51:28.795Z,57.18
2022-10-13T04:54:01.443Z,57.53
2022-10-13T04:56:28.198Z,57.25
2022-10-13T04:58:59.870Z,57.28
2022-10-13T05:01:26.704Z,57.14
2022-10-13T05:04:01.138Z,57.43
2022-10-13T05:06:30.559Z,57.16
2022-10-13T05:08:57.501Z,57.45
2022-10-13T05:11:26.504Z,57.30
2022-10-13T05:13:57.722Z,57.39
2022-10-13T05:16:25.066Z,57.14
2022-10-13T05:18:53.983Z,57.09
2022-10-13T05:21:26.229Z,57.47
2022-10-13T05:23:56.253Z,57.19
2022-10-13T05:26:28.688Z,57.11
2022-10-13T05:28:57.195Z,57.19
2022-10-13T05:31:27.066Z,57.28
2022-10-13T05:33:56.179Z,57.21
2022-10-13T05:36:26.509Z,57.13
2022-10-13T05:38:54.831Z,57.17
2022-10-13T05:41:23.177Z,57.35
2022-10-13T05:43:58.925Z,57.15
2022-10-13T05:46:25.602Z,57.09
2022-10-13T05:48:52.208Z,57.36
2022-10-13T05:51:28.165Z,57.17
2022-10-13T05:54:20.184Z,57.50
2022-10-13T05:56:55.795Z,57.54
2022-10-13T05:59:27.070Z,57.57
2022-10-13T06:01:54.590Z,57.27
2022-10-13T06:04:41.653Z,57.67
2022-10-13T06:07:09.781Z,57.46
2022-10-13T06:09:39.740Z,57.67
2022-10-13T06:12:07.691Z,57.34
2022-10-13T06:14:35.450Z,57.41
2022-10-13T06:17:05.769Z,57.70
2022-10-13T06:19:32.360Z,57.80
2022-10-13T06:22:07.046Z,57.88
2022-10-13T06:24:35.287Z,57.46
2022-10-13T06:27:03.664Z,57.58
2022-10-13T06:29:30.193Z,58.15
2022-10-13T06:31:56.677Z,57.66
2022-10-13T06:34:23.150Z,58.04
2022-10-13T06:36:49.622Z,58.05
2022-10-13T06:39:16.088Z,57.73
2022-10-13T06:41:42.559Z,58.07
2022-10-13T06:44:12.917Z,58.00
2022-10-13T06:46:39.383Z,58.23
2022-10-13T06:49:05.897Z,58.35
2022-10-13T06:51:32.421Z,57.89
2022-10-13T06:54:03.606Z,58.00
2022-10-13T06:56:30.773Z,57.99
2022-10-13T06:58:58.633Z,58.12
2022-10-13T07:01:25.173Z,58.30
2022-10-13T07:03:54.814Z,58.19
2022-10-13T07:06:21.493Z,58.20
2022-10-13T07:08:50.409Z,58.17
2022-10-13T07:11:18.562Z,57.68
2022-10-13T07:13:54.288Z,57.84
2022-10-13T07:16:20.772Z,57.91
2022-10-13T07:18:48.209Z,57.98
2022-10-13T07:21:14.926Z,58.05
2022-10-13T07:23:41.387Z,57.91
2022-10-13T07:26:09.970Z,58.07
2022-10-13T07:28:37.365Z,58.16
2022-10-13T07:31:30.050Z,58.08
2022-10-13T07:34:01.712Z,58.15
2022-10-13T07:36:28.205Z,57.75
2022-10-13T07:38:54.662Z,57.64
2022-10-13T07:41:21.125Z,57.82
2022-10-13T07:43:49.687Z,58.14
2022-10-13T07:46:16.222Z,58.00
2022-10-13T07:48:42.740Z,58.09
2022-10-13T07:51:12.707Z,57.60
2022-10-13T07:53:40.570Z,58.08
2022-10-13T07:56:09.252Z,57.82
2022-10-13T07:58:40.216Z,58.00
2022-10-13T08:01:07.732Z,58.27
2022-10-13T08:03:38.398Z,57.83
2022-10-13T08:06:05.899Z,57.81
2022-10-13T08:08:33.693Z,57.89
2022-10-13T08:11:05.427Z,57.84
2022-10-13T08:13:34.353Z,57.67
2022-10-13T08:16:12.604Z,57.58
2022-10-13T08:18:39.208Z,57.58
2022-10-13T08:21:39.220Z,57.57
2022-10-13T08:24:02.222Z,57.36
2022-10-13T08:26:29.121Z,57.62
2022-10-13T08:29:16.829Z,57.25
2022-10-13T08:31:42.947Z,57.23
2022-10-13T08:34:11.279Z,57.22
2022-10-13T08:36:38.768Z,57.41
2022-10-13T08:39:05.538Z,57.60
2022-10-13T08:41:37.919Z,57.39
2022-10-13T08:47:22.963Z,56.97
2022-10-13T08:49:49.766Z,57.14
2022-10-13T08:52:22.902Z,57.00
2022-10-13T08:54:53.293Z,57.03
2022-10-13T08:57:21.200Z,56.92
2022-10-13T08:59:48.601Z,56.98
2022-10-13T09:02:29.848Z,56.79
2022-10-13T09:05:00.858Z,56.82
2022-10-13T09:07:32.331Z,56.94
2022-10-13T09:09:58.794Z,56.60
2022-10-13T09:12:27.595Z,56.73
2022-10-13T09:15:01.428Z,56.37
2022-10-13T09:17:29.480Z,56.01
2022-10-13T09:20:16.186Z,56.09
2022-10-13T09:22:43.586Z,55.95
2022-10-13T09:25:21.277Z,55.89
2022-10-13T09:27:59.583Z,55.77
2022-10-13T09:30:41.511Z,55.57
2022-10-13T09:33:08.648Z,55.52
2022-10-13T09:35:41.575Z,55.46
2022-10-13T09:38:13.241Z,55.22
2022-10-13T09:40:40.903Z,55.46
2022-10-13T09:43:27.517Z,55.40
2022-10-13T09:45:54.959Z,55.12
2022-10-13T09:48:26.915Z,54.93
2022-10-13T09:50:56.098Z,54.82
2022-10-13T09:53:37.983Z,55.13
2022-10-13T09:56:26.169Z,54.74
2022-10-13T09:59:07.737Z,54.71
2022-10-13T10:01:39.596Z,54.74
2022-10-13T10:04:17.996Z,55.07
2022-10-13T10:06:46.138Z,54.48
2022-10-13T10:09:15.570Z,54.77
2022-10-13T10:11:45.265Z,54.59
2022-10-13T10:14:29.637Z,54.59
2022-10-13T10:17:06.102Z,54.66
2022-10-13T10:19:43.297Z,54.56
2022-10-13T10:22:09.767Z,54.64
2022-10-13T10:24:49.349Z,54.38
2022-10-13T10:27:30.457Z,54.84
2022-10-13T10:30:06.556Z,54.56
2022-10-13T10:32:51.196Z,54.77
2022-10-13T10:35:40.495Z,54.49
2022-10-13T10:38:15.906Z,54.83
2022-10-13T10:41:00.960Z,54.63
2022-10-13T10:44:01.696Z,54.97
2022-10-13T10:46:32.517Z,54.62
2022-10-13T10:49:02.766Z,54.94
2022-10-13T10:51:36.654Z,55.29
2022-10-13T10:54:46.609Z,55.30
2022-10-13T10:57:33.388Z,55.11
2022-10-13T11:00:14.175Z,55.36
2022-10-13T11:02:45.153Z,55.24
2022-10-13T11:05:12.485Z,55.40
2022-10-13T11:07:38.948Z,55.68
2022-10-13T11:10:16.302Z,55.57
2022-10-13T11:12:53.063Z,55.43
2022-10-13T11:15:23.782Z,55.60
2022-10-13T11:17:50.836Z,55.66
2022-10-13T11:20:18.006Z,55.82
2022-10-13T11:22:59.703Z,56.24
2022-10-13T11:25:43.745Z,56.32
2022-10-13T11:28:22.760Z,56.34
2022-10-13T11:30:50.564Z,56.28
2022-10-13T11:33:39.198Z,56.54
2022-10-13T11:36:43.347Z,56.59
2022-10-13T11:39:28.595Z,56.59
2022-10-13T11:42:06.719Z,56.66
2022-10-13T11:45:14.656Z,56.58
2022-10-13T11:47:54.018Z,56.69
2022-10-13T11:50:49.470Z,56.57
2022-10-13T11:53:21.654Z,56.56
2022-10-13T11:55:58.480Z,57.01
2022-10-13T11:58:30.379Z,56.76
2022-10-13T12:01:03.094Z,57.06
2022-10-13T12:04:12.780Z,56.92
2022-10-13T12:06:40.394Z,56.71
2022-10-13T12:09:21.109Z,56.94
2022-10-13T12:11:57.052Z,57.34
2022-10-13T12:14:32.494Z,57.31
2022-10-13T12:17:00.550Z,56.98
2022-10-13T12:19:29.411Z,57.09
2022-10-13T12:22:01.635Z,57.46
2022-10-13T12:24:30.715Z,57.56
2022-10-13T12:26:58.617Z,57.66
2022-10-13T12:29:27.830Z,57.60
2022-10-13T12:31:58.081Z,57.84
2022-10-13T12:34:32.153Z,57.98
2022-10-13T12:37:05.531Z,57.72
2022-10-13T12:39:34.955Z,57.92
2022-10-13T12:42:03.430Z,57.71
2022-10-13T12:44:34.477Z,58.21
2022-10-13T12:47:03.713Z,58.25
2022-10-13T12:49:32.865Z,58.18
2022-10-13T12:52:19.244Z,57.84
2022-10-13T12:54:54.340Z,58.12
2022-10-13T12:57:22.930Z,58.51
2022-10-13T12:59:49.498Z,58.05
2022-10-13T13:02:19.117Z,58.59
2022-10-13T13:04:50.700Z,58.49
2022-10-13T13:07:37.068Z,58.59
2022-10-13T13:10:15.800Z,58.91
2022-10-13T13:12:43.071Z,58.52
2022-10-13T13:15:24.517Z,58.85
2022-10-13T13:17:58.455Z,58.89
2022-10-13T13:20:34.687Z,58.83
2022-10-13T13:23:01.266Z,58.75
2022-10-13T13:25:27.889Z,59.02
2022-10-13T13:27:54.754Z,59.14
2022-10-13T13:30:23.599Z,58.83
2022-10-13T13:32:51.001Z,58.81
2022-10-13T13:35:17.695Z,58.95
2022-10-13T13:37:49.533Z,59.00
2022-10-13T13:40:21.659Z,59.40
2022-10-13T13:42:48.158Z,59.39
2022-10-13T13:45:16.362Z,59.32
2022-10-13T13:47:43.211Z,59.31
2022-10-13T13:50:20.655Z,59.50
2022-10-13T13:52:55.879Z,59.14
2022-10-13T13:55:27.954Z,59.26
2022-10-13T13:57:54.432Z,59.36
2022-10-13T14:00:22.198Z,59.68
2022-10-13T14:02:54.973Z,59.79
2022-10-13T14:05:23.564Z,59.57
2022-10-13T14:07:53.156Z,59.63
2022-10-13T14:10:19.618Z,59.83
2022-10-13T14:12:46.355Z,59.66
2022-10-13T14:15:12.902Z,59.56
2022-10-13T14:17:39.358Z,59.94
2022-10-13T14:20:06.410Z,59.81
2022-10-13T14:22:38.728Z,59.94
2022-10-13T14:25:06.784Z,59.80
2022-10-13T14:27:34.911Z,60.13
2022-10-13T14:30:01.955Z,59.75
2022-10-13T14:32:28.529Z,60.04
2022-10-13T14:34:56.875Z,60.00
2022-10-13T14:37:26.701Z,60.00
2022-10-13T14:39:55.602Z,60.16
2022-10-13T14:42:22.130Z,60.16
2022-10-13T14:44:53.004Z,60.43
2022-10-13T14:47:19.885Z,60.53
2022-10-13T14:49:46.580Z,60.14
2022-10-13T14:52:13.070Z,60.36
2022-10-13T14:54:44.552Z,60.10
2022-10-13T14:57:16.257Z,60.25
2022-10-13T14:59:43.846Z,60.49
2022-10-13T15:02:11.488Z,60.43
2022-10-13T15:04:40.566Z,60.33
2022-10-13T15:07:07.015Z,60.35
2022-10-13T15:09:52.151Z,60.46
2022-10-13T15:12:22.755Z,60.56
2022-10-13T15:14:49.502Z,60.19
2022-10-13T15:17:15.996Z,60.33
2022-10-13T15:19:42.445Z,60.28
2022-10-13T15:22:09.577Z,60.64
2022-10-13T15:24:36.910Z,60.76
2022-10-13T15:27:03.459Z,60.34
2022-10-13T15:29:31.786Z,60.50
2022-10-13T15:32:11.818Z,60.85
2022-10-13T15:34:42.877Z,60.74
2022-10-13T15:37:09.357Z,60.80
2022-10-13T15:39:35.898Z,60.73
2022-10-13T15:42:02.898Z,60.51
2022-10-13T15:44:57.307Z,60.78
2022-10-13T15:47:20.302Z,60.86
2022-10-13T15:49:46.775Z,60.78
2022-10-13T15:52:13.392Z,60.61
2022-10-13T15:54:40.892Z,60.94
2022-10-13T15:57:08.061Z,60.70
2022-10-13T15:59:34.566Z,60.77
2022-10-13T16:02:01.027Z,60.45
2022-10-13T16:04:33.495Z,60.60
2022-10-13T16:07:02.973Z,60.70
2022-10-13T16:09:29.588Z,60.96
2022-10-13T16:11:56.078Z,60.84
2022-10-13T16:14:25.677Z,61.03
2022-10-13T16:16:52.454Z,60.91
2022-10-13T16:19:19.027Z,60.83
2022-10-13T16:21:46.803Z,60.78
2022-10-13T16:24:18.017Z,60.94
2022-10-13T16:26:44.529Z,60.91
2022-10-13T16:29:11.018Z,60.82
2022-10-13T16:31:37.532Z,60.62
2022-10-13T16:34:04.870Z,60.86
2022-10-13T16:36:31.442Z,60.73
2022-10-13T16:38:57.977Z,60.55
2022-10-13T16:41:24.428Z,60.52
2022-10-13T16:43:54.253Z,60.52
2022-10-13T16:46:21.150Z,60.77
2022-10-13T16:48:47.946Z,60.74
2022-10-13T16:51:17.219Z,60.68
2022-10-13T16:53:50.016Z,60.81
2022-10-13T16:56:21.826Z,60.54
2022-10-13T16:58:54.461Z,60.61
2022-10-13T17:01:21.685Z,60.90
2022-10-13T17:04:08.260Z,60.84
2022-10-13T17:06:38.525Z,60.67
2022-10-13T17:09:05.345Z,60.57
2022-10-13T17:11:34.143Z,60.75
2022-10-13T17:14:05.606Z,60.86
2022-10-13T17:16:33.063Z,60.44
2022-10-13T17:18:59.778Z,60.91
2022-10-13T17:21:38.612Z,60.73
2022-10-13T17:24:11.594Z,60.83
2022-10-13T17:26:38.639Z,60.61
2022-10-13T17:29:05.114Z,60.72
2022-10-13T17:31:31.614Z,60.71
2022-10-13T17:34:02.392Z,60.72
2022-10-13T17:36:31.831Z,60.65
2022-10-13T17:39:06.207Z,60.43
2022-10-13T17:41:39.377Z,60.79
2022-10-13T17:44:06.731Z,60.47
2022-10-13T17:46:38.303Z,60.57
2022-10-13T17:49:07.128Z,60.72
2022-10-13T17:51:33.992Z,60.60
2022-10-13T17:54:01.271Z,60.41
2022-10-13T17:56:28.993Z,60.36
2022-10-13T17:58:56.638Z,60.72
2022-10-13T18:01:26.497Z,60.77
2022-10-13T18:03:59.706Z,60.67
2022-10-13T18:06:37.853Z,60.57
2022-10-13T18:09:06.221Z,60.58
2022-10-13T18:11:33.896Z,60.76
2022-10-13T18:14:04.463Z,60.91
2022-10-13T18:16:31.017Z,60.48
2022-10-13T18:18:57.485Z,60.98
2022-10-13T18:21:27.514Z,60.61
2022-10-13T18:24:01.646Z,60.97
2022-10-13T18:26:36.717Z,60.86
2022-10-13T18:29:05.130Z,60.90
2022-10-13T18:31:33.861Z,61.00
2022-10-13T18:34:06.384Z,60.94
2022-10-13T18:36:38.841Z,60.99
2022-10-13T18:39:11.097Z,61.20
2022-10-13T18:41:39.589Z,60.86
2022-10-13T18:44:10.449Z,61.21
2022-10-13T18:46:38.286Z,61.23
2022-10-13T18:49:06.870Z,61.03
2022-10-13T18:51:36.214Z,61.01
2022-10-13T18:54:05.612Z,61.08
2022-10-13T18:56:33.522Z,61.14
2022-10-13T18:59:01.663Z,61.50
2022-10-13T19:01:31.465Z,61.29
2022-10-13T19:04:00.402Z,61.24
2022-10-13T19:06:30.355Z,61.31
2022-10-13T19:09:01.916Z,61.35
2022-10-13T19:11:29.513Z,61.70
2022-10-13T19:13:59.371Z,61.72
2022-10-13T19:16:28.138Z,61.41
2022-10-13T19:18:54.998Z,61.72
2022-10-13T19:21:22.808Z,61.88
2022-10-13T19:23:54.133Z,61.58
2022-10-13T19:26:23.736Z,61.52
2022-10-13T19:28:58.417Z,61.39
2022-10-13T19:31:26.497Z,61.79
2022-10-13T19:34:01.931Z,61.80
2022-10-13T19:36:32.429Z,61.32
2022-10-13T19:39:01.902Z,61.54
2022-10-13T19:41:31.192Z,61.62
2022-10-13T19:44:02.409Z,61.27
2022-10-13T19:46:39.213Z,61.51
2022-10-13T19:49:05.961Z,61.62
2022-10-13T19:51:33.851Z,61.39
2022-10-13T19:54:02.077Z,61.59
2022-10-13T19:56:31.568Z,61.08
2022-10-13T19:58:58.895Z,61.52
2022-10-13T20:01:25.435Z,61.25
2022-10-13T20:03:55.180Z,61.26
2022-10-13T20:06:22.298Z,61.18
2022-10-13T20:08:49.336Z,61.03
2022-10-13T20:11:23.813Z,61.31
2022-10-13T20:13:59.817Z,61.22
2022-10-13T20:16:26.412Z,61.08
2022-10-13T20:18:56.645Z,61.32
2022-10-13T20:21:24.411Z,61.13
2022-10-13T20:23:54.576Z,61.28
2022-10-13T20:26:22.131Z,61.09
2022-10-13T20:28:50.443Z,61.02
2022-10-13T20:31:19.564Z,61.52
2022-10-13T20:33:47.078Z,61.37
2022-10-13T20:36:38.283Z,61.44
2022-10-13T20:39:05.662Z,61.18
2022-10-13T20:41:33.193Z,61.27
2022-10-13T20:44:02.460Z,61.32
2022-10-13T20:46:30.890Z,61.46
2022-10-13T20:49:10.409Z,61.16
2022-10-13T20:51:38.069Z,61.28
2022-10-13T20:54:10.104Z,61.10
2022-10-13T20:56:36.720Z,61.45
2022-10-13T20:59:05.470Z,61.33
2022-10-13T21:01:32.575Z,61.23
2022-10-13T21:04:24.335Z,61.54
2022-10-13T21:06:51.944Z,61.29
2022-10-13T21:09:18.542Z,61.53
2022-10-13T21:11:45.020Z,61.39
2022-10-13T21:14:14.492Z,61.24
2022-10-13T21:16:41.009Z,61.71
2022-10-13T21:19:10.947Z,61.72
2022-10-13T21:21:37.866Z,61.66
2022-10-13T21:24:08.141Z,61.59
2022-10-13T21:26:35.340Z,61.47
2022-10-13T21:29:02.231Z,61.39
2022-10-13T21:31:30.313Z,61.62
2022-10-13T21:33:58.905Z,61.44
2022-10-13T21:36:30.656Z,61.86
2022-10-13T21:39:02.691Z,61.98
2022-10-13T21:41:29.180Z,61.81
2022-10-13T21:43:58.897Z,62.00
2022-10-13T21:46:32.084Z,61.66
2022-10-13T21:49:00.798Z,61.59
2022-10-13T21:51:30.166Z,61.49
2022-10-13T21:54:01.391Z,61.91
2022-10-13T21:56:30.480Z,61.86
2022-10-13T21:58:59.005Z,61.45
2022-10-13T22:01:25.825Z,61.92
2022-10-13T22:03:58.376Z,61.61
2022-10-13T22:06:28.588Z,61.82
2022-10-13T22:08:57.145Z,61.88
2022-10-13T22:11:26.945Z,61.25
2022-10-13T22:13:57.771Z,61.41
2022-10-13T22:16:30.804Z,61.29
2022-10-13T22:18:58.246Z,61.50
2022-10-13T22:21:27.930Z,61.17
2022-10-13T22:24:01.434Z,61.31
2022-10-13T22:26:30.458Z,61.42
2022-10-13T22:28:58.052Z,61.41
2022-10-13T22:31:25.100Z,61.24
2022-10-13T22:34:01.431Z,61.71
2022-10-13T22:36:28.050Z,61.37
2022-10-13T22:39:02.735Z,61.60
2022-10-13T22:41:31.512Z,61.78
2022-10-13T22:44:01.538Z,61.76
2022-10-13T22:46:32.111Z,61.63
2022-10-13T22:48:59.000Z,61.81
2022-10-13T22:51:27.326Z,61.32
2022-10-13T22:53:57.406Z,61.83
2022-10-13T22:56:29.442Z,61.50
2022-10-13T22:59:15.022Z,61.70
2022-10-13T23:01:43.647Z,61.73
2022-10-13T23:04:14.741Z,61.69
2022-10-13T23:06:41.183Z,61.59
2022-10-13T23:09:11.921Z,61.65
2022-10-13T23:11:38.867Z,61.54
2022-10-13T23:14:08.747Z,61.82
2022-10-13T23:16:35.603Z,61.77
2022-10-13T23:19:02.158Z,61.74
2022-10-13T23:21:29.782Z,61.86
2022-10-13T23:24:02.726Z,61.92
2022-10-13T23:26:31.408Z,61.98
2022-10-13T23:28:58.631Z,61.75
2022-10-13T23:31:26.483Z,61.66
2022-10-13T23:33:55.384Z,62.11
2022-10-13T23:36:26.019Z,62.04
2022-10-13T23:39:02.312Z,61.81
2022-10-13T23:41:29.362Z,61.69
2022-10-13T23:43:58.317Z,61.85
2022-10-13T23:46:25.210Z,61.97
2022-10-13T23:48:52.553Z,61.87
2022-10-13T23:51:21.598Z,61.83
2022-10-13T23:53:55.331Z,61.68
2022-10-13T23:56:22.502Z,61.87
2022-10-13T23:58:49.433Z,61.98
